Airfield :
LOGIN :

Register | Disclaimer

   EN    FR    IT 

 










Legend :    VFR   Marginal VFR   IFR   Intensive IFR   Very Intensive IFR
Visi :
Ceiling :
>= 8 km
>= 3000ft
5 to 8 km
1000 to 3000 ft
1500m to 5 km
500 to 1000 ft
800 to 1500m
200 to 500 ft
< 800m
< 200 ft
Symbols :   Thunderstorms  Fog  Heavy snow  Heavy precipitations  Wind > 20 kt
SIGMETs :     Misc.  Thunderstorms  Icing  Turbulence  Mountain Waves  Volcanic Ashes







- Airport Elevation : 1682 ft
- IATA code : VIT


LEVT - Vitoria Gasteiz

CURRENT METAR :
  • 241830Z 36008KT 9999 FEW035 12/07 Q1030

EXPIRED METARs :
  • 241800Z 01010KT 340V040 9999 FEW035 12/07 Q1030
  • 241730Z 01013KT 350V050 9999 FEW035 13/07 Q1030
  • 241700Z 01013KT 340V040 9999 FEW035 14/07 Q1030
  • 241630Z 01011KT 340V040 9999 SCT035 15/07 Q1029
  • 241600Z 01013KT 9999 SCT035 16/09 Q1029

TAF TAF LEVT
Valid from the 24 at 18:00 until the 25 at 18:00 UTC


241700Z 2418/2518 03012KT 9999 SCT020 BKN030 TX21/2513Z TN06/2506Z
BECMG 2420/2424 VRB02KT
TEMPO 2510/2518 02010KT
No reported NOTAMs for that airfield.



MET'MAP, your aeronautical weather chart ! - Copyright ORBIFLY December 2007 - Disclaimer

ORBIFLY MET'MAP TEAM :

Programming & Development : Alexandra Zaïnal
Concept & Development : Baudouin d'Aumeries
Co-Development & Prog : Marc-Olivier Méhu
Technical & hardware support : Manuel Goepfert

Contact : metmap@orbifly.com




SOURCES & CREDITS :

   NOAA